DAL1428 KSEA-KSFO
Flight info
| Callsign | DAL1428 |
|---|---|
| Flight time | N/A |
| Altitude | 35000 |
| Route | HAROB6 ERAVE Q1 ETCHY MLBEC BDEGA4 |
| Aircraft | B739/M-SDE2E3FGHIRWXY/LB1 |
Departure
| Time | 2026-05-04 23:28 |
|---|---|
| Airport | Seattle–Tacoma International Airport (KSEA) |
Arrival
| Time | N/A |
|---|---|
| Airport | San Francisco International Airport (KSFO) |
| Time | Latitude | Longitude | Altitude | Speed | Heading |
|---|---|---|---|---|---|
| 2026-05-04 23:06 | 47.44526 | -122.30324 | 393 ft | 0 kts | 270° |
| 2026-05-04 23:21 | 47.44526 | -122.30308 | 393 ft | 4 kts | 265° |
| 2026-05-04 23:21 | 47.44531 | -122.30269 | 393 ft | 4 kts | 248° |
| 2026-05-04 23:21 | 47.44543 | -122.30235 | 393 ft | 4 kts | 228° |
| 2026-05-04 23:21 | 47.44563 | -122.30210 | 393 ft | 4 kts | 208° |
| 2026-05-04 23:22 | 47.44587 | -122.30196 | 393 ft | 4 kts | 193° |
| 2026-05-04 23:22 | 47.44614 | -122.30189 | 393 ft | 4 kts | 183° |
| 2026-05-04 23:22 | 47.44641 | -122.30188 | 393 ft | 4 kts | 180° |
| 2026-05-04 23:22 | 47.44667 | -122.30186 | 393 ft | 4 kts | 199° |
| 2026-05-04 23:23 | 47.44680 | -122.30179 | 393 ft | 1 kts | 281° |
| 2026-05-04 23:23 | 47.44680 | -122.30178 | 393 ft | 1 kts | 282° |
| 2026-05-04 23:24 | 47.44680 | -122.30181 | 393 ft | 1 kts | 282° |
| 2026-05-04 23:25 | 47.44688 | -122.30237 | 393 ft | 10 kts | 287° |
| 2026-05-04 23:25 | 47.44736 | -122.30355 | 393 ft | 17 kts | 307° |
| 2026-05-04 23:25 | 47.44808 | -122.30512 | 393 ft | 20 kts | 301° |
| 2026-05-04 23:25 | 47.44932 | -122.30626 | 393 ft | 23 kts | 357° |
| 2026-05-04 23:26 | 47.45101 | -122.30626 | 393 ft | 26 kts | 359° |
| 2026-05-04 23:26 | 47.45291 | -122.30628 | 393 ft | 29 kts | 0° |
| 2026-05-04 23:26 | 47.45499 | -122.30624 | 393 ft | 31 kts | 1° |
| 2026-05-04 23:26 | 47.45720 | -122.30621 | 393 ft | 33 kts | 359° |
| 2026-05-04 23:27 | 47.45957 | -122.30621 | 393 ft | 35 kts | 1° |
| 2026-05-04 23:27 | 47.46203 | -122.30615 | 393 ft | 32 kts | 360° |
| 2026-05-04 23:27 | 47.46367 | -122.30685 | 393 ft | 25 kts | 274° |
| 2026-05-04 23:27 | 47.46251 | -122.30778 | 393 ft | 20 kts | 184° |
| 2026-05-04 23:28 | 47.45964 | -122.30782 | 393 ft | 79 kts | 180° |
| 2026-05-04 23:28 | 47.45178 | -122.30790 | 393 ft | 144 kts | 180° |
| 2026-05-04 23:28 | 47.44049 | -122.30852 | 716 ft | 167 kts | 186° |
| 2026-05-04 23:28 | 47.42884 | -122.30863 | 1429 ft | 172 kts | 181° |
| 2026-05-04 23:29 | 47.41663 | -122.30837 | 2037 ft | 181 kts | 184° |
| 2026-05-04 23:29 | 47.40331 | -122.30880 | 2331 ft | 206 kts | 184° |
| 2026-05-04 23:29 | 47.38814 | -122.30916 | 2503 ft | 230 kts | 184° |
| 2026-05-04 23:29 | 47.37125 | -122.30969 | 2703 ft | 254 kts | 182° |
| 2026-05-04 23:30 | 47.35306 | -122.31034 | 3165 ft | 264 kts | 183° |
| 2026-05-04 23:30 | 47.33490 | -122.31517 | 3700 ft | 269 kts | 207° |
| 2026-05-04 23:30 | 47.32105 | -122.33319 | 4284 ft | 268 kts | 242° |
| 2026-05-04 23:30 | 47.31447 | -122.35834 | 4824 ft | 272 kts | 260° |
| 2026-05-04 23:31 | 47.31132 | -122.38590 | 5415 ft | 274 kts | 264° |
| 2026-05-04 23:31 | 47.30862 | -122.41396 | 6022 ft | 278 kts | 263° |
| 2026-05-04 23:31 | 47.30616 | -122.44227 | 6670 ft | 280 kts | 269° |
| 2026-05-04 23:31 | 47.30632 | -122.47091 | 7333 ft | 280 kts | 275° |
| 2026-05-04 23:32 | 47.30746 | -122.49961 | 7983 ft | 283 kts | 275° |
| 2026-05-04 23:32 | 47.30866 | -122.52885 | 8643 ft | 286 kts | 277° |
| 2026-05-04 23:32 | 47.30977 | -122.55821 | 9338 ft | 289 kts | 276° |
| 2026-05-04 23:32 | 47.31078 | -122.58795 | 10013 ft | 292 kts | 276° |
| 2026-05-04 23:33 | 47.31174 | -122.61841 | 10394 ft | 307 kts | 275° |
| 2026-05-04 23:33 | 47.31269 | -122.65096 | 10559 ft | 328 kts | 274° |
| 2026-05-04 23:33 | 47.31365 | -122.68553 | 10789 ft | 345 kts | 275° |
| 2026-05-04 23:33 | 47.31460 | -122.72129 | 11305 ft | 352 kts | 274° |
| 2026-05-04 23:34 | 47.31539 | -122.75746 | 11962 ft | 354 kts | 271° |
| 2026-05-04 23:34 | 47.31077 | -122.79293 | 12594 ft | 362 kts | 251° |
| 2026-05-04 23:34 | 47.30116 | -122.82745 | 13249 ft | 367 kts | 249° |
| 2026-05-04 23:34 | 47.29142 | -122.86251 | 13792 ft | 373 kts | 251° |
| 2026-05-04 23:35 | 47.28168 | -122.89809 | 14414 ft | 375 kts | 250° |
| 2026-05-04 23:35 | 47.27200 | -122.93396 | 15050 ft | 378 kts | 251° |
| 2026-05-04 23:35 | 47.26227 | -122.97020 | 15653 ft | 382 kts | 251° |
| 2026-05-04 23:35 | 47.25249 | -123.00672 | 16269 ft | 385 kts | 251° |
| 2026-05-04 23:36 | 47.23970 | -123.04184 | 16838 ft | 396 kts | 232° |
| 2026-05-04 23:36 | 47.21923 | -123.06933 | 17436 ft | 402 kts | 219° |
| 2026-05-04 23:36 | 47.19696 | -123.09354 | 18010 ft | 407 kts | 218° |
| 2026-05-04 23:36 | 47.17379 | -123.11807 | 18495 ft | 412 kts | 218° |
| 2026-05-04 23:37 | 47.15036 | -123.14286 | 18964 ft | 416 kts | 218° |
| 2026-05-04 23:37 | 47.12681 | -123.16798 | 19464 ft | 420 kts | 218° |
| 2026-05-04 23:37 | 47.10306 | -123.19351 | 19984 ft | 424 kts | 218° |
| 2026-05-04 23:37 | 47.07925 | -123.21922 | 20490 ft | 428 kts | 218° |
| 2026-05-04 23:38 | 47.05514 | -123.24533 | 20990 ft | 431 kts | 218° |
| 2026-05-04 23:38 | 47.03122 | -123.27123 | 21453 ft | 435 kts | 218° |
| 2026-05-04 23:38 | 47.00667 | -123.29779 | 21921 ft | 439 kts | 218° |
| 2026-05-04 23:38 | 46.98198 | -123.32447 | 22402 ft | 443 kts | 218° |
| 2026-05-04 23:39 | 46.95703 | -123.35138 | 22873 ft | 446 kts | 218° |
| 2026-05-04 23:39 | 46.93187 | -123.37813 | 23380 ft | 449 kts | 214° |
| 2026-05-04 23:39 | 46.90334 | -123.39733 | 23749 ft | 455 kts | 194° |
| 2026-05-04 23:39 | 46.87188 | -123.40296 | 24158 ft | 455 kts | 178° |
| 2026-05-04 23:40 | 46.84022 | -123.40198 | 24598 ft | 456 kts | 176° |
| 2026-05-04 23:40 | 46.80875 | -123.40047 | 24974 ft | 460 kts | 176° |
| 2026-05-04 23:40 | 46.77664 | -123.39882 | 25353 ft | 463 kts | 176° |
| 2026-05-04 23:40 | 46.74432 | -123.39728 | 25761 ft | 466 kts | 176° |
| 2026-05-04 23:41 | 46.71175 | -123.39591 | 26159 ft | 468 kts | 177° |
| 2026-05-04 23:41 | 46.67903 | -123.39470 | 26537 ft | 471 kts | 177° |
| 2026-05-04 23:41 | 46.64623 | -123.39359 | 26912 ft | 474 kts | 177° |
| 2026-05-04 23:41 | 46.61313 | -123.39253 | 27291 ft | 476 kts | 177° |
| 2026-05-04 23:42 | 46.57983 | -123.39151 | 27713 ft | 478 kts | 177° |
| 2026-05-04 23:42 | 46.54647 | -123.39049 | 28098 ft | 480 kts | 177° |
| 2026-05-04 23:42 | 46.51294 | -123.38946 | 28451 ft | 483 kts | 177° |
| 2026-05-04 23:42 | 46.47926 | -123.38843 | 28795 ft | 486 kts | 177° |
| 2026-05-04 23:43 | 46.44557 | -123.38739 | 29133 ft | 490 kts | 177° |
| 2026-05-04 23:43 | 46.41144 | -123.38633 | 29446 ft | 493 kts | 177° |
| 2026-05-04 23:43 | 46.37708 | -123.38526 | 29806 ft | 495 kts | 177° |
| 2026-05-04 23:43 | 46.34255 | -123.38419 | 30127 ft | 497 kts | 177° |
| 2026-05-04 23:44 | 46.30792 | -123.38312 | 30432 ft | 499 kts | 177° |
| 2026-05-04 23:44 | 46.27322 | -123.38205 | 30806 ft | 498 kts | 176° |
| 2026-05-04 23:44 | 46.23855 | -123.38099 | 31207 ft | 497 kts | 176° |
| 2026-05-04 23:44 | 46.21575 | -123.38029 | 31496 ft | 496 kts | 176° |
| 2026-05-04 23:45 | 46.16993 | -123.37889 | 32019 ft | 495 kts | 176° |
| 2026-05-04 23:45 | 46.13558 | -123.37783 | 32332 ft | 495 kts | 176° |
| 2026-05-04 23:45 | 46.10099 | -123.37677 | 32656 ft | 496 kts | 176° |
| 2026-05-04 23:45 | 46.06651 | -123.37571 | 33008 ft | 495 kts | 176° |
| 2026-05-04 23:46 | 46.04363 | -123.37500 | 33245 ft | 495 kts | 176° |
| 2026-05-04 23:46 | 46.00926 | -123.37395 | 33549 ft | 495 kts | 176° |
| 2026-05-04 23:46 | 45.97486 | -123.37290 | 33855 ft | 495 kts | 176° |
| 2026-05-04 23:46 | 45.94081 | -123.37186 | 34142 ft | 494 kts | 176° |
| 2026-05-04 23:47 | 45.90645 | -123.37082 | 34436 ft | 494 kts | 176° |
| 2026-05-04 23:47 | 45.87214 | -123.36978 | 34736 ft | 492 kts | 175° |
| 2026-05-04 23:47 | 45.83790 | -123.36874 | 34947 ft | 493 kts | 175° |
| 2026-05-04 23:47 | 45.80349 | -123.36768 | 34933 ft | 495 kts | 175° |
| 2026-05-04 23:48 | 45.73481 | -123.36560 | 34969 ft | 492 kts | 175° |
| 2026-05-04 23:48 | 45.66671 | -123.36355 | 34967 ft | 491 kts | 175° |
| 2026-05-04 23:49 | 45.59841 | -123.36149 | 34956 ft | 489 kts | 175° |
| 2026-05-04 23:49 | 45.53043 | -123.35944 | 34942 ft | 489 kts | 175° |
| 2026-05-04 23:50 | 45.46242 | -123.35739 | 34940 ft | 488 kts | 175° |
| 2026-05-04 23:50 | 45.39434 | -123.35535 | 34948 ft | 488 kts | 175° |
| 2026-05-04 23:51 | 45.32665 | -123.35332 | 34949 ft | 489 kts | 175° |
| 2026-05-04 23:51 | 45.25856 | -123.35129 | 34947 ft | 490 kts | 175° |
| 2026-05-04 23:52 | 45.19017 | -123.34926 | 34939 ft | 491 kts | 175° |
| 2026-05-04 23:52 | 45.12191 | -123.34722 | 34948 ft | 491 kts | 175° |
| 2026-05-04 23:53 | 45.05384 | -123.34522 | 34968 ft | 492 kts | 175° |
| 2026-05-04 23:53 | 44.98537 | -123.34320 | 34965 ft | 492 kts | 175° |
| 2026-05-04 23:54 | 44.91686 | -123.34118 | 34957 ft | 492 kts | 175° |
| 2026-05-04 23:54 | 44.84834 | -123.33917 | 34971 ft | 491 kts | 175° |
| 2026-05-04 23:55 | 44.78002 | -123.33716 | 34970 ft | 490 kts | 174° |
| 2026-05-04 23:56 | 44.67774 | -123.33418 | 34981 ft | 489 kts | 174° |
| 2026-05-04 23:56 | 44.61032 | -123.33221 | 34995 ft | 487 kts | 174° |
| 2026-05-04 23:57 | 44.54252 | -123.33024 | 34983 ft | 486 kts | 174° |
| 2026-05-04 23:57 | 44.47484 | -123.32817 | 34982 ft | 485 kts | 174° |
| 2026-05-04 23:58 | 44.40737 | -123.32538 | 34981 ft | 484 kts | 173° |
| 2026-05-04 23:58 | 44.33992 | -123.32250 | 34990 ft | 483 kts | 173° |
| 2026-05-04 23:59 | 44.27302 | -123.31976 | 34995 ft | 483 kts | 173° |
| 2026-05-04 23:59 | 44.20562 | -123.31704 | 34996 ft | 483 kts | 173° |
| 2026-05-05 00:00 | 44.13851 | -123.31434 | 34998 ft | 483 kts | 173° |
| 2026-05-05 00:00 | 44.07162 | -123.31167 | 35012 ft | 483 kts | 173° |
| 2026-05-05 00:01 | 44.00441 | -123.30900 | 34990 ft | 483 kts | 173° |
| 2026-05-05 00:01 | 43.93709 | -123.30634 | 35007 ft | 483 kts | 173° |
| 2026-05-05 00:02 | 43.86978 | -123.30367 | 35002 ft | 483 kts | 173° |
| 2026-05-05 00:02 | 43.80252 | -123.30101 | 35004 ft | 483 kts | 173° |
| 2026-05-05 00:03 | 43.73587 | -123.29839 | 34999 ft | 483 kts | 173° |
| 2026-05-05 00:03 | 43.66870 | -123.29575 | 35001 ft | 482 kts | 173° |
| 2026-05-05 00:04 | 43.60162 | -123.29312 | 35001 ft | 481 kts | 173° |
| 2026-05-05 00:04 | 43.53465 | -123.29050 | 34996 ft | 481 kts | 173° |
| 2026-05-05 00:05 | 43.46756 | -123.28787 | 34991 ft | 481 kts | 173° |
| 2026-05-05 00:05 | 43.40056 | -123.28526 | 34983 ft | 481 kts | 173° |
| 2026-05-05 00:06 | 43.33406 | -123.28268 | 34972 ft | 481 kts | 173° |
| 2026-05-05 00:06 | 43.26718 | -123.28009 | 34981 ft | 480 kts | 172° |
| 2026-05-05 00:07 | 43.20037 | -123.27750 | 34975 ft | 480 kts | 172° |
| 2026-05-05 00:07 | 43.13345 | -123.27491 | 34972 ft | 480 kts | 172° |
| 2026-05-05 00:08 | 43.06704 | -123.27235 | 34983 ft | 479 kts | 172° |
| 2026-05-05 00:08 | 43.00030 | -123.26978 | 34962 ft | 479 kts | 172° |
| 2026-05-05 00:09 | 42.93349 | -123.26722 | 34951 ft | 478 kts | 172° |
| 2026-05-05 00:09 | 42.86693 | -123.26468 | 34972 ft | 478 kts | 172° |
| 2026-05-05 00:10 | 42.80087 | -123.26215 | 34946 ft | 477 kts | 172° |
| 2026-05-05 00:10 | 42.73445 | -123.25962 | 34932 ft | 476 kts | 172° |
| 2026-05-05 00:11 | 42.66855 | -123.25711 | 34944 ft | 475 kts | 172° |
| 2026-05-05 00:11 | 42.60234 | -123.25460 | 34939 ft | 475 kts | 172° |
| 2026-05-05 00:12 | 42.53625 | -123.25210 | 34921 ft | 474 kts | 172° |
| 2026-05-05 00:12 | 42.47036 | -123.24962 | 34922 ft | 473 kts | 172° |
| 2026-05-05 00:13 | 42.40489 | -123.24722 | 34916 ft | 473 kts | 172° |
| 2026-05-05 00:13 | 42.33897 | -123.24482 | 34881 ft | 474 kts | 172° |
| 2026-05-05 00:14 | 42.27300 | -123.24243 | 34911 ft | 474 kts | 172° |
| 2026-05-05 00:14 | 42.20700 | -123.24004 | 34899 ft | 475 kts | 172° |
| 2026-05-05 00:15 | 42.14069 | -123.23765 | 34910 ft | 476 kts | 172° |
| 2026-05-05 00:15 | 42.07472 | -123.23527 | 34907 ft | 477 kts | 172° |
| 2026-05-05 00:16 | 42.00835 | -123.23289 | 34925 ft | 477 kts | 172° |
| 2026-05-05 00:16 | 41.94183 | -123.23049 | 34903 ft | 477 kts | 172° |
| 2026-05-05 00:17 | 41.87578 | -123.22734 | 34934 ft | 475 kts | 171° |
| 2026-05-05 00:17 | 41.81003 | -123.22545 | 34942 ft | 475 kts | 172° |
| 2026-05-05 00:18 | 41.74388 | -123.22345 | 34945 ft | 474 kts | 172° |
| 2026-05-05 00:18 | 41.67807 | -123.22112 | 34949 ft | 472 kts | 172° |
| 2026-05-05 00:19 | 41.61226 | -123.21877 | 34961 ft | 471 kts | 172° |
| 2026-05-05 00:19 | 41.54667 | -123.21644 | 34949 ft | 470 kts | 172° |
| 2026-05-05 00:20 | 41.48181 | -123.21414 | 34967 ft | 470 kts | 172° |
| 2026-05-05 00:20 | 41.41645 | -123.21183 | 34964 ft | 471 kts | 172° |
| 2026-05-05 00:21 | 41.35089 | -123.20953 | 34984 ft | 470 kts | 172° |
| 2026-05-05 00:21 | 41.28532 | -123.20752 | 34988 ft | 470 kts | 172° |
| 2026-05-05 00:22 | 41.22024 | -123.20595 | 35000 ft | 471 kts | 172° |
| 2026-05-05 00:22 | 41.15467 | -123.20441 | 35004 ft | 471 kts | 172° |
| 2026-05-05 00:23 | 41.08901 | -123.20279 | 35004 ft | 472 kts | 172° |
| 2026-05-05 00:23 | 41.02325 | -123.20116 | 35011 ft | 472 kts | 172° |
| 2026-05-05 00:24 | 40.95732 | -123.19951 | 34991 ft | 473 kts | 172° |
| 2026-05-05 00:24 | 40.89148 | -123.19787 | 34985 ft | 473 kts | 172° |
| 2026-05-05 00:25 | 40.82556 | -123.19623 | 34984 ft | 474 kts | 172° |
| 2026-05-05 00:25 | 40.75957 | -123.19460 | 34975 ft | 474 kts | 172° |
| 2026-05-05 00:26 | 40.69392 | -123.19297 | 34972 ft | 474 kts | 172° |
| 2026-05-05 00:26 | 40.62794 | -123.19134 | 34992 ft | 475 kts | 172° |
| 2026-05-05 00:27 | 40.56189 | -123.18971 | 34977 ft | 475 kts | 172° |
| 2026-05-05 00:27 | 40.49581 | -123.18809 | 34985 ft | 475 kts | 173° |
| 2026-05-05 00:28 | 40.42956 | -123.18647 | 34987 ft | 475 kts | 173° |
| 2026-05-05 00:28 | 40.36334 | -123.18484 | 34988 ft | 475 kts | 173° |
| 2026-05-05 00:29 | 40.29727 | -123.18323 | 35008 ft | 474 kts | 173° |
| 2026-05-05 00:29 | 40.23122 | -123.18162 | 35004 ft | 474 kts | 173° |
| 2026-05-05 00:30 | 40.16574 | -123.18003 | 34998 ft | 472 kts | 173° |
| 2026-05-05 00:30 | 40.10007 | -123.17843 | 35014 ft | 470 kts | 173° |
| 2026-05-05 00:31 | 40.04420 | -123.17707 | 35000 ft | 470 kts | 173° |
| 2026-05-05 00:31 | 40.00551 | -123.17613 | 35000 ft | 469 kts | 173° |
| 2026-05-05 00:32 | 39.92971 | -123.17404 | 35010 ft | 467 kts | 172° |